SPKNC EPGL-EPGL
Flight info
| Callsign | SPKNC |
|---|---|
| Flight time | 0h 52m |
| Altitude | 3500 |
| Route | EPGL/EPKT/EPGL |
| Aircraft | C150/L-SC/C |
Departure
| Time | 2026-05-06 14:17 |
|---|---|
| Airport | Gliwice-Trynek Airfield (EPGL) |
Arrival
| Time | 2026-05-06 15:10 |
|---|---|
| Airport | Gliwice-Trynek Airfield (EPGL) |
| Time | Latitude | Longitude | Altitude | Speed | Heading |
|---|---|---|---|---|---|
| 2026-05-06 14:05 | 50.27255 | 18.67285 | 828 ft | 0 kts | 275° |
| 2026-05-06 14:13 | 50.27233 | 18.67260 | 828 ft | 9 kts | 181° |
| 2026-05-06 14:13 | 50.27168 | 18.67306 | 829 ft | 13 kts | 109° |
| 2026-05-06 14:14 | 50.27127 | 18.67487 | 828 ft | 15 kts | 118° |
| 2026-05-06 14:14 | 50.27090 | 18.67585 | 827 ft | 8 kts | 110° |
| 2026-05-06 14:14 | 50.27068 | 18.67685 | 827 ft | 11 kts | 112° |
| 2026-05-06 14:14 | 50.27019 | 18.67770 | 827 ft | 11 kts | 187° |
| 2026-05-06 14:15 | 50.26948 | 18.67763 | 828 ft | 9 kts | 178° |
| 2026-05-06 14:15 | 50.26900 | 18.67728 | 829 ft | 8 kts | 255° |
| 2026-05-06 14:15 | 50.26899 | 18.67711 | 829 ft | 0 kts | 264° |
| 2026-05-06 14:16 | 50.26896 | 18.67648 | 830 ft | 20 kts | 262° |
| 2026-05-06 14:16 | 50.26887 | 18.67180 | 840 ft | 59 kts | 264° |
| 2026-05-06 14:16 | 50.26901 | 18.66538 | 987 ft | 57 kts | 263° |
| 2026-05-06 14:16 | 50.26913 | 18.65941 | 1121 ft | 56 kts | 261° |
| 2026-05-06 14:17 | 50.26899 | 18.65322 | 1228 ft | 59 kts | 257° |
| 2026-05-06 14:17 | 50.26850 | 18.64659 | 1357 ft | 61 kts | 246° |
| 2026-05-06 14:17 | 50.26564 | 18.64245 | 1495 ft | 61 kts | 193° |
| 2026-05-06 14:17 | 50.26118 | 18.64314 | 1594 ft | 68 kts | 177° |
| 2026-05-06 14:18 | 50.25655 | 18.64454 | 1740 ft | 67 kts | 172° |
| 2026-05-06 14:18 | 50.25255 | 18.64924 | 1808 ft | 84 kts | 126° |
| 2026-05-06 14:18 | 50.25194 | 18.65937 | 1796 ft | 102 kts | 89° |
| 2026-05-06 14:18 | 50.25297 | 18.67041 | 1797 ft | 102 kts | 90° |
| 2026-05-06 14:19 | 50.25359 | 18.68127 | 1808 ft | 101 kts | 92° |
| 2026-05-06 14:19 | 50.25428 | 18.69222 | 1819 ft | 101 kts | 91° |
| 2026-05-06 14:19 | 50.25527 | 18.70325 | 1853 ft | 100 kts | 85° |
| 2026-05-06 14:19 | 50.25743 | 18.71307 | 1984 ft | 96 kts | 67° |
| 2026-05-06 14:20 | 50.26158 | 18.72146 | 2057 ft | 100 kts | 47° |
| 2026-05-06 14:20 | 50.26674 | 18.72921 | 2105 ft | 104 kts | 42° |
| 2026-05-06 14:20 | 50.27228 | 18.73672 | 2172 ft | 104 kts | 42° |
| 2026-05-06 14:20 | 50.27752 | 18.74466 | 2229 ft | 104 kts | 47° |
| 2026-05-06 14:21 | 50.28259 | 18.75263 | 2321 ft | 102 kts | 46° |
| 2026-05-06 14:21 | 50.28742 | 18.76040 | 2438 ft | 99 kts | 47° |
| 2026-05-06 14:21 | 50.29237 | 18.76814 | 2525 ft | 101 kts | 46° |
| 2026-05-06 14:21 | 50.29735 | 18.77574 | 2621 ft | 100 kts | 46° |
| 2026-05-06 14:22 | 50.30243 | 18.78335 | 2713 ft | 100 kts | 44° |
| 2026-05-06 14:22 | 50.30752 | 18.79096 | 2796 ft | 101 kts | 47° |
| 2026-05-06 14:22 | 50.31253 | 18.79879 | 2887 ft | 101 kts | 46° |
| 2026-05-06 14:22 | 50.31748 | 18.80660 | 2969 ft | 102 kts | 49° |
| 2026-05-06 14:23 | 50.32229 | 18.81458 | 3067 ft | 101 kts | 49° |
| 2026-05-06 14:23 | 50.32710 | 18.82261 | 3160 ft | 100 kts | 50° |
| 2026-05-06 14:23 | 50.33172 | 18.83078 | 3230 ft | 102 kts | 52° |
| 2026-05-06 14:23 | 50.33641 | 18.83889 | 3332 ft | 99 kts | 49° |
| 2026-05-06 14:24 | 50.34129 | 18.84688 | 3410 ft | 100 kts | 49° |
| 2026-05-06 14:24 | 50.34605 | 18.85467 | 3473 ft | 103 kts | 47° |
| 2026-05-06 14:24 | 50.35126 | 18.86289 | 3504 ft | 106 kts | 46° |
| 2026-05-06 14:24 | 50.35617 | 18.87143 | 3502 ft | 107 kts | 53° |
| 2026-05-06 14:25 | 50.36102 | 18.88033 | 3487 ft | 108 kts | 52° |
| 2026-05-06 14:25 | 50.36594 | 18.88922 | 3483 ft | 108 kts | 52° |
| 2026-05-06 14:25 | 50.37091 | 18.89814 | 3474 ft | 109 kts | 51° |
| 2026-05-06 14:25 | 50.37584 | 18.90719 | 3468 ft | 109 kts | 51° |
| 2026-05-06 14:26 | 50.38071 | 18.91620 | 3465 ft | 109 kts | 53° |
| 2026-05-06 14:26 | 50.38566 | 18.92544 | 3460 ft | 109 kts | 53° |
| 2026-05-06 14:26 | 50.39045 | 18.93462 | 3465 ft | 109 kts | 54° |
| 2026-05-06 14:26 | 50.39522 | 18.94383 | 3456 ft | 109 kts | 53° |
| 2026-05-06 14:27 | 50.40002 | 18.95298 | 3457 ft | 108 kts | 53° |
| 2026-05-06 14:27 | 50.40478 | 18.96203 | 3462 ft | 107 kts | 53° |
| 2026-05-06 14:27 | 50.40958 | 18.97127 | 3445 ft | 109 kts | 54° |
| 2026-05-06 14:27 | 50.41431 | 18.98025 | 3474 ft | 106 kts | 53° |
| 2026-05-06 14:28 | 50.41917 | 18.98925 | 3466 ft | 107 kts | 52° |
| 2026-05-06 14:28 | 50.42416 | 18.99815 | 3403 ft | 113 kts | 50° |
| 2026-05-06 14:28 | 50.42926 | 19.00770 | 3293 ft | 114 kts | 53° |
| 2026-05-06 14:28 | 50.43429 | 19.01733 | 3172 ft | 114 kts | 53° |
| 2026-05-06 14:29 | 50.43943 | 19.02701 | 3046 ft | 115 kts | 52° |
| 2026-05-06 14:29 | 50.44465 | 19.03660 | 2860 ft | 117 kts | 52° |
| 2026-05-06 14:29 | 50.44997 | 19.04640 | 2635 ft | 119 kts | 53° |
| 2026-05-06 14:29 | 50.45470 | 19.05666 | 2399 ft | 115 kts | 66° |
| 2026-05-06 14:30 | 50.45729 | 19.06792 | 2211 ft | 105 kts | 89° |
| 2026-05-06 14:30 | 50.45806 | 19.07891 | 2104 ft | 96 kts | 93° |
| 2026-05-06 14:30 | 50.45826 | 19.08903 | 2048 ft | 92 kts | 98° |
| 2026-05-06 14:30 | 50.45850 | 19.09916 | 1983 ft | 92 kts | 97° |
| 2026-05-06 14:31 | 50.45895 | 19.10914 | 1942 ft | 91 kts | 94° |
| 2026-05-06 14:31 | 50.45958 | 19.11849 | 1930 ft | 84 kts | 93° |
| 2026-05-06 14:31 | 50.46017 | 19.12757 | 1940 ft | 83 kts | 95° |
| 2026-05-06 14:31 | 50.46068 | 19.13663 | 1942 ft | 83 kts | 93° |
| 2026-05-06 14:32 | 50.46154 | 19.14545 | 1974 ft | 83 kts | 79° |
| 2026-05-06 14:32 | 50.46489 | 19.15291 | 2004 ft | 80 kts | 32° |
| 2026-05-06 14:32 | 50.47004 | 19.15562 | 1993 ft | 78 kts | 360° |
| 2026-05-06 14:32 | 50.47526 | 19.15365 | 1873 ft | 76 kts | 308° |
| 2026-05-06 14:33 | 50.47671 | 19.14695 | 1750 ft | 64 kts | 252° |
| 2026-05-06 14:33 | 50.47601 | 19.14016 | 1599 ft | 61 kts | 252° |
| 2026-05-06 14:33 | 50.47597 | 19.13363 | 1476 ft | 58 kts | 259° |
| 2026-05-06 14:33 | 50.47593 | 19.12782 | 1397 ft | 51 kts | 255° |
| 2026-05-06 14:34 | 50.47596 | 19.12216 | 1331 ft | 52 kts | 256° |
| 2026-05-06 14:34 | 50.47596 | 19.11644 | 1261 ft | 52 kts | 257° |
| 2026-05-06 14:34 | 50.47591 | 19.11054 | 1185 ft | 54 kts | 258° |
| 2026-05-06 14:34 | 50.47594 | 19.10452 | 1115 ft | 56 kts | 261° |
| 2026-05-06 14:35 | 50.47595 | 19.09833 | 1032 ft | 57 kts | 259° |
| 2026-05-06 14:35 | 50.47597 | 19.09265 | 992 ft | 39 kts | 269° |
| 2026-05-06 14:35 | 50.47607 | 19.08694 | 1022 ft | 59 kts | 260° |
| 2026-05-06 14:35 | 50.47615 | 19.08056 | 1151 ft | 59 kts | 258° |
| 2026-05-06 14:36 | 50.47607 | 19.07424 | 1268 ft | 59 kts | 257° |
| 2026-05-06 14:36 | 50.47595 | 19.06719 | 1373 ft | 65 kts | 258° |
| 2026-05-06 14:36 | 50.47601 | 19.06025 | 1525 ft | 63 kts | 258° |
| 2026-05-06 14:36 | 50.47592 | 19.05347 | 1675 ft | 61 kts | 253° |
| 2026-05-06 14:37 | 50.47395 | 19.04858 | 1815 ft | 55 kts | 203° |
| 2026-05-06 14:37 | 50.47000 | 19.04746 | 1903 ft | 61 kts | 192° |
| 2026-05-06 14:37 | 50.46553 | 19.04682 | 1973 ft | 68 kts | 188° |
| 2026-05-06 14:37 | 50.46071 | 19.04723 | 2016 ft | 71 kts | 180° |
| 2026-05-06 14:38 | 50.45599 | 19.05020 | 2061 ft | 80 kts | 152° |
| 2026-05-06 14:38 | 50.45315 | 19.05869 | 2070 ft | 97 kts | 110° |
| 2026-05-06 14:38 | 50.45356 | 19.06998 | 2050 ft | 107 kts | 86° |
| 2026-05-06 14:38 | 50.45552 | 19.08128 | 2048 ft | 108 kts | 80° |
| 2026-05-06 14:39 | 50.45689 | 19.09266 | 2051 ft | 106 kts | 90° |
| 2026-05-06 14:39 | 50.45793 | 19.10405 | 2061 ft | 105 kts | 89° |
| 2026-05-06 14:39 | 50.45874 | 19.11542 | 2062 ft | 104 kts | 92° |
| 2026-05-06 14:39 | 50.45927 | 19.12679 | 2055 ft | 104 kts | 95° |
| 2026-05-06 14:40 | 50.45970 | 19.13802 | 2064 ft | 102 kts | 94° |
| 2026-05-06 14:40 | 50.45991 | 19.14924 | 2066 ft | 103 kts | 96° |
| 2026-05-06 14:40 | 50.46005 | 19.16042 | 2042 ft | 105 kts | 96° |
| 2026-05-06 14:40 | 50.46183 | 19.17153 | 2008 ft | 107 kts | 58° |
| 2026-05-06 14:41 | 50.46793 | 19.17724 | 1941 ft | 100 kts | 3° |
| 2026-05-06 14:41 | 50.47439 | 19.17627 | 1881 ft | 86 kts | 322° |
| 2026-05-06 14:41 | 50.47709 | 19.17004 | 1846 ft | 65 kts | 256° |
| 2026-05-06 14:41 | 50.47645 | 19.16288 | 1758 ft | 66 kts | 250° |
| 2026-05-06 14:42 | 50.47605 | 19.15554 | 1692 ft | 68 kts | 254° |
| 2026-05-06 14:42 | 50.47578 | 19.14809 | 1617 ft | 66 kts | 256° |
| 2026-05-06 14:42 | 50.47584 | 19.14101 | 1547 ft | 64 kts | 258° |
| 2026-05-06 14:42 | 50.47588 | 19.13409 | 1472 ft | 64 kts | 260° |
| 2026-05-06 14:43 | 50.47590 | 19.12709 | 1384 ft | 65 kts | 259° |
| 2026-05-06 14:43 | 50.47597 | 19.11990 | 1288 ft | 67 kts | 261° |
| 2026-05-06 14:43 | 50.47588 | 19.11264 | 1202 ft | 68 kts | 262° |
| 2026-05-06 14:43 | 50.47594 | 19.10533 | 1106 ft | 62 kts | 261° |
| 2026-05-06 14:44 | 50.47595 | 19.09878 | 1034 ft | 60 kts | 260° |
| 2026-05-06 14:44 | 50.47597 | 19.09250 | 996 ft | 49 kts | 264° |
| 2026-05-06 14:44 | 50.47598 | 19.08728 | 996 ft | 57 kts | 265° |
| 2026-05-06 14:45 | 50.47617 | 19.07537 | 1245 ft | 57 kts | 253° |
| 2026-05-06 14:45 | 50.47591 | 19.06920 | 1385 ft | 56 kts | 254° |
| 2026-05-06 14:45 | 50.47584 | 19.06312 | 1515 ft | 56 kts | 256° |
| 2026-05-06 14:45 | 50.47621 | 19.05700 | 1641 ft | 57 kts | 261° |
| 2026-05-06 14:46 | 50.47659 | 19.05091 | 1769 ft | 56 kts | 258° |
| 2026-05-06 14:46 | 50.47684 | 19.04483 | 1883 ft | 55 kts | 255° |
| 2026-05-06 14:46 | 50.47668 | 19.03887 | 2000 ft | 54 kts | 252° |
| 2026-05-06 14:46 | 50.47637 | 19.03287 | 2108 ft | 54 kts | 249° |
| 2026-05-06 14:47 | 50.47596 | 19.02691 | 2214 ft | 56 kts | 250° |
| 2026-05-06 14:47 | 50.47560 | 19.02087 | 2330 ft | 55 kts | 250° |
| 2026-05-06 14:47 | 50.47520 | 19.01469 | 2437 ft | 56 kts | 249° |
| 2026-05-06 14:47 | 50.47465 | 19.00854 | 2516 ft | 61 kts | 248° |
| 2026-05-06 14:48 | 50.47382 | 19.00175 | 2570 ft | 66 kts | 248° |
| 2026-05-06 14:48 | 50.47303 | 18.99448 | 2598 ft | 71 kts | 252° |
| 2026-05-06 14:48 | 50.47272 | 18.98624 | 2547 ft | 79 kts | 261° |
| 2026-05-06 14:48 | 50.47302 | 18.97764 | 2513 ft | 78 kts | 263° |
| 2026-05-06 14:49 | 50.47350 | 18.96919 | 2493 ft | 76 kts | 264° |
| 2026-05-06 14:49 | 50.47416 | 18.96094 | 2466 ft | 76 kts | 265° |
| 2026-05-06 14:49 | 50.47493 | 18.95263 | 2455 ft | 75 kts | 266° |
| 2026-05-06 14:49 | 50.47562 | 18.94452 | 2461 ft | 73 kts | 265° |
| 2026-05-06 14:50 | 50.47627 | 18.93662 | 2462 ft | 73 kts | 265° |
| 2026-05-06 14:50 | 50.47696 | 18.92863 | 2451 ft | 73 kts | 266° |
| 2026-05-06 14:50 | 50.47755 | 18.92071 | 2462 ft | 72 kts | 265° |
| 2026-05-06 14:50 | 50.47800 | 18.91294 | 2476 ft | 70 kts | 257° |
| 2026-05-06 14:51 | 50.47705 | 18.90572 | 2484 ft | 68 kts | 243° |
| 2026-05-06 14:51 | 50.47525 | 18.89893 | 2532 ft | 68 kts | 238° |
| 2026-05-06 14:51 | 50.47315 | 18.89217 | 2559 ft | 69 kts | 235° |
| 2026-05-06 14:51 | 50.47105 | 18.88554 | 2616 ft | 68 kts | 237° |
| 2026-05-06 14:52 | 50.46917 | 18.87886 | 2682 ft | 66 kts | 239° |
| 2026-05-06 14:52 | 50.46768 | 18.87203 | 2774 ft | 64 kts | 245° |
| 2026-05-06 14:52 | 50.46664 | 18.86529 | 2844 ft | 66 kts | 246° |
| 2026-05-06 14:52 | 50.46567 | 18.85830 | 2928 ft | 64 kts | 247° |
| 2026-05-06 14:53 | 50.46462 | 18.85156 | 3015 ft | 61 kts | 242° |
| 2026-05-06 14:53 | 50.46331 | 18.84531 | 3104 ft | 60 kts | 240° |
| 2026-05-06 14:53 | 50.46180 | 18.83925 | 3183 ft | 60 kts | 237° |
| 2026-05-06 14:53 | 50.45995 | 18.83338 | 3255 ft | 60 kts | 232° |
| 2026-05-06 14:54 | 50.45789 | 18.82771 | 3344 ft | 59 kts | 233° |
| 2026-05-06 14:54 | 50.45585 | 18.82203 | 3409 ft | 60 kts | 233° |
| 2026-05-06 14:54 | 50.45409 | 18.81612 | 3490 ft | 61 kts | 238° |
| 2026-05-06 14:54 | 50.45267 | 18.80966 | 3569 ft | 61 kts | 243° |
| 2026-05-06 14:55 | 50.45125 | 18.80335 | 3637 ft | 62 kts | 239° |
| 2026-05-06 14:55 | 50.44948 | 18.79718 | 3720 ft | 60 kts | 236° |
| 2026-05-06 14:55 | 50.44770 | 18.79120 | 3796 ft | 61 kts | 236° |
| 2026-05-06 14:55 | 50.44609 | 18.78520 | 3889 ft | 60 kts | 238° |
| 2026-05-06 14:56 | 50.44442 | 18.77905 | 3967 ft | 61 kts | 239° |
| 2026-05-06 14:56 | 50.44273 | 18.77293 | 4039 ft | 62 kts | 237° |
| 2026-05-06 14:56 | 50.44105 | 18.76687 | 4124 ft | 60 kts | 237° |
| 2026-05-06 14:56 | 50.43936 | 18.76080 | 4206 ft | 60 kts | 236° |
| 2026-05-06 14:57 | 50.43762 | 18.75494 | 4285 ft | 59 kts | 235° |
| 2026-05-06 14:57 | 50.43574 | 18.74924 | 4353 ft | 59 kts | 233° |
| 2026-05-06 14:57 | 50.43380 | 18.74360 | 4433 ft | 59 kts | 232° |
| 2026-05-06 14:57 | 50.43169 | 18.73791 | 4477 ft | 62 kts | 231° |
| 2026-05-06 14:58 | 50.42941 | 18.73177 | 4486 ft | 67 kts | 232° |
| 2026-05-06 14:58 | 50.42706 | 18.72543 | 4483 ft | 67 kts | 233° |
| 2026-05-06 14:58 | 50.42473 | 18.71909 | 4489 ft | 66 kts | 233° |
| 2026-05-06 14:58 | 50.42249 | 18.71267 | 4476 ft | 67 kts | 234° |
| 2026-05-06 14:59 | 50.42027 | 18.70634 | 4482 ft | 66 kts | 233° |
| 2026-05-06 14:59 | 50.41810 | 18.69976 | 4468 ft | 68 kts | 235° |
| 2026-05-06 14:59 | 50.41608 | 18.69306 | 4463 ft | 68 kts | 237° |
| 2026-05-06 14:59 | 50.41430 | 18.68602 | 4463 ft | 68 kts | 238° |
| 2026-05-06 15:00 | 50.41233 | 18.67922 | 4456 ft | 69 kts | 237° |
| 2026-05-06 15:00 | 50.41032 | 18.67240 | 4446 ft | 70 kts | 237° |
| 2026-05-06 15:00 | 50.40823 | 18.66555 | 4457 ft | 67 kts | 236° |
| 2026-05-06 15:00 | 50.40615 | 18.65898 | 4462 ft | 67 kts | 233° |
| 2026-05-06 15:01 | 50.40409 | 18.65237 | 4460 ft | 68 kts | 239° |
| 2026-05-06 15:01 | 50.40230 | 18.64561 | 4475 ft | 66 kts | 236° |
| 2026-05-06 15:01 | 50.40003 | 18.63928 | 4473 ft | 65 kts | 228° |
| 2026-05-06 15:01 | 50.39700 | 18.63401 | 4466 ft | 65 kts | 216° |
| 2026-05-06 15:02 | 50.39334 | 18.62997 | 4469 ft | 64 kts | 208° |
| 2026-05-06 15:02 | 50.38927 | 18.62730 | 4464 ft | 64 kts | 197° |
| 2026-05-06 15:02 | 50.38480 | 18.62632 | 4472 ft | 64 kts | 185° |
| 2026-05-06 15:02 | 50.38031 | 18.62727 | 4471 ft | 66 kts | 172° |
| 2026-05-06 15:03 | 50.37587 | 18.62974 | 4468 ft | 68 kts | 166° |
| 2026-05-06 15:03 | 50.37135 | 18.63279 | 4392 ft | 73 kts | 165° |
| 2026-05-06 15:03 | 50.36653 | 18.63607 | 4272 ft | 76 kts | 165° |
| 2026-05-06 15:03 | 50.36167 | 18.63925 | 4130 ft | 77 kts | 167° |
| 2026-05-06 15:04 | 50.35646 | 18.64170 | 3973 ft | 77 kts | 172° |
| 2026-05-06 15:04 | 50.35140 | 18.64423 | 3844 ft | 77 kts | 169° |
| 2026-05-06 15:04 | 50.34628 | 18.64680 | 3695 ft | 78 kts | 169° |
| 2026-05-06 15:04 | 50.34103 | 18.64938 | 3528 ft | 79 kts | 172° |
| 2026-05-06 15:05 | 50.33579 | 18.65160 | 3380 ft | 78 kts | 173° |
| 2026-05-06 15:05 | 50.33050 | 18.65379 | 3206 ft | 79 kts | 172° |
| 2026-05-06 15:05 | 50.32525 | 18.65607 | 3055 ft | 78 kts | 173° |
| 2026-05-06 15:05 | 50.31992 | 18.65783 | 2896 ft | 78 kts | 176° |
| 2026-05-06 15:06 | 50.31460 | 18.65946 | 2738 ft | 78 kts | 176° |
| 2026-05-06 15:06 | 50.30912 | 18.66111 | 2457 ft | 83 kts | 176° |
| 2026-05-06 15:06 | 50.30362 | 18.66256 | 2193 ft | 77 kts | 179° |
| 2026-05-06 15:06 | 50.29843 | 18.66398 | 1959 ft | 74 kts | 179° |
| 2026-05-06 15:07 | 50.29354 | 18.66532 | 1789 ft | 68 kts | 178° |
| 2026-05-06 15:07 | 50.28944 | 18.66670 | 1751 ft | 55 kts | 176° |
| 2026-05-06 15:07 | 50.28577 | 18.66828 | 1711 ft | 54 kts | 171° |
| 2026-05-06 15:07 | 50.28270 | 18.67208 | 1670 ft | 61 kts | 133° |
| 2026-05-06 15:08 | 50.28207 | 18.67901 | 1617 ft | 70 kts | 91° |
| 2026-05-06 15:08 | 50.28234 | 18.68682 | 1519 ft | 72 kts | 101° |
| 2026-05-06 15:08 | 50.28136 | 18.69453 | 1424 ft | 69 kts | 121° |
| 2026-05-06 15:08 | 50.27854 | 18.69968 | 1344 ft | 59 kts | 163° |
| 2026-05-06 15:09 | 50.27454 | 18.70061 | 1222 ft | 59 kts | 189° |
| 2026-05-06 15:09 | 50.27110 | 18.69817 | 1107 ft | 53 kts | 225° |
| 2026-05-06 15:09 | 50.26956 | 18.69301 | 1025 ft | 55 kts | 254° |
| 2026-05-06 15:09 | 50.26915 | 18.68704 | 963 ft | 55 kts | 263° |
| 2026-05-06 15:10 | 50.26906 | 18.68104 | 898 ft | 56 kts | 260° |
| 2026-05-06 15:10 | 50.26889 | 18.67489 | 833 ft | 49 kts | 265° |
| 2026-05-06 15:10 | 50.26884 | 18.67134 | 836 ft | 15 kts | 271° |
| 2026-05-06 15:10 | 50.26943 | 18.67097 | 836 ft | 13 kts | 11° |
| 2026-05-06 15:11 | 50.27063 | 18.67142 | 833 ft | 21 kts | 20° |
| 2026-05-06 15:11 | 50.27152 | 18.67216 | 830 ft | 8 kts | 30° |
| 2026-05-06 15:11 | 50.27208 | 18.67254 | 829 ft | 12 kts | 36° |
| 2026-05-06 15:11 | 50.27253 | 18.67266 | 828 ft | 0 kts | 271° |